Time;durP1;ratioP1;P1;durP2;ratioP2;P2;SDS_P1;SDS_P2;PMS_P1;PMS_P2;Temp;Humidity;BMP_temperature;BMP_pressure;BME280_temperature;BME280_humidity;BME280_pressure;Samples;Min_cycle;Max_cycle;Signal;HPM_P1;HPM_P2
2022/01/04 00:01:26;;;;;;;1.17;1.10;;;;;;;6.56;100.00;98111.53;4956795;28;20514;-57
2022/01/04 00:03:51;;;;;;;2.03;1.50;;;;;;;6.63;100.00;98119.94;4961862;28;20113;-58
2022/01/04 00:06:16;;;;;;;2.33;1.87;;;;;;;6.70;100.00;98111.38;4963486;28;20375;-57
2022/01/04 00:08:42;;;;;;;2.23;1.57;;;;;;;6.60;100.00;98107.25;4960007;28;20067;-60
2022/01/04 00:11:31;;;;;;;4.73;2.20;;;;;;;6.58;100.00;98101.31;4955245;28;20273;-59
2022/01/04 00:13:57;;;;;;;3.53;2.43;;;;;;;6.63;100.00;98102.13;4960609;28;20043;-59
2022/01/04 00:16:22;;;;;;;5.80;3.23;;;;;;;6.61;100.00;98096.22;4962044;28;20532;-60
2022/01/04 00:18:48;;;;;;;2.90;2.10;;;;;;;6.55;100.00;98081.84;4956439;28;20033;-57
2022/01/04 00:21:13;;;;;;;3.93;2.57;;;;;;;6.68;100.00;98077.44;4953744;28;20582;-61
2022/01/04 00:23:39;;;;;;;4.40;2.13;;;;;;;6.56;100.00;98067.41;4963073;28;20031;-58
2022/01/04 00:26:04;;;;;;;4.53;2.33;;;;;;;6.59;100.00;98070.75;4961838;28;20081;-58
2022/01/04 00:28:30;;;;;;;3.93;2.30;;;;;;;6.58;100.00;98068.22;4957083;28;20046;-57
2022/01/04 00:30:55;;;;;;;4.37;2.23;;;;;;;6.56;100.00;98075.03;4956258;28;20035;-60
2022/01/04 00:33:21;;;;;;;4.00;2.10;;;;;;;6.56;100.00;98065.72;4944282;28;20074;-58
2022/01/04 00:35:47;;;;;;;3.03;1.90;;;;;;;6.59;100.00;98068.22;4957706;28;20508;-59
2022/01/04 00:38:13;;;;;;;4.70;2.50;;;;;;;6.67;100.00;98071.50;4955297;28;20030;-58
2022/01/04 00:40:39;;;;;;;2.73;2.07;;;;;;;6.63;100.00;98061.38;4956275;28;20038;-60
2022/01/04 00:43:05;;;;;;;3.70;2.10;;;;;;;6.56;100.00;98054.66;4962569;28;20027;-59
2022/01/04 00:45:32;;;;;;;2.70;2.10;;;;;;;6.62;100.00;98057.16;4944303;28;20043;-60
2022/01/04 00:50:28;;;;;;;2.03;1.77;;;;;;;6.61;100.00;98058.00;4959674;28;20031;-60
2022/01/04 00:52:54;;;;;;;1.60;1.30;;;;;;;6.58;100.00;98047.84;4959778;28;20469;-59
2022/01/04 00:55:21;;;;;;;1.60;1.27;;;;;;;6.66;100.00;98051.16;4959634;28;20037;-59
2022/01/04 00:57:46;;;;;;;5.33;1.83;;;;;;;6.67;100.00;98052.81;4960229;28;20034;-59
2022/01/04 01:00:15;;;;;;;1.63;1.20;;;;;;;6.71;100.00;98049.38;4953746;28;20031;-60
2022/01/04 01:02:41;;;;;;;2.73;1.07;;;;;;;6.81;100.00;98038.22;4957063;28;20039;-60
2022/01/04 01:05:07;;;;;;;2.13;1.27;;;;;;;6.86;100.00;98039.84;4958591;28;20054;-58
2022/01/04 01:07:34;;;;;;;1.30;1.20;;;;;;;6.84;100.00;98031.34;4951449;28;20042;-58
2022/01/04 01:12:38;;;;;;;1.97;1.40;;;;;;;6.85;100.00;98022.00;4957185;28;20027;-59
2022/01/04 01:15:04;;;;;;;1.60;1.50;;;;;;;6.88;100.00;98024.50;4956597;28;20055;-58
2022/01/04 01:17:30;;;;;;;4.20;1.43;;;;;;;6.94;100.00;98024.44;4953830;28;20380;-58
2022/01/04 01:19:57;;;;;;;2.07;1.67;;;;;;;6.93;100.00;98015.09;4956579;28;20067;-58
2022/01/04 01:22:22;;;;;;;5.17;1.37;;;;;;;6.94;100.00;98008.31;4959115;28;20035;-58
2022/01/04 01:24:48;;;;;;;3.10;1.70;;;;;;;6.93;100.00;98010.00;4954344;28;20046;-58
2022/01/04 01:27:14;;;;;;;2.67;1.73;;;;;;;6.90;100.00;97989.69;4956791;28;20031;-58
2022/01/04 01:29:39;;;;;;;3.00;1.83;;;;;;;6.81;100.00;97988.09;4960048;28;20122;-59
2022/01/04 01:32:05;;;;;;;3.37;1.70;;;;;;;6.75;100.00;97983.09;4956246;28;20548;-57
2022/01/04 01:34:30;;;;;;;1.43;1.33;;;;;;;6.78;100.00;97982.22;4955746;28;20035;-59
2022/01/04 01:36:56;;;;;;;1.53;1.13;;;;;;;6.73;100.00;97968.69;4954559;28;20523;-58
2022/01/04 01:39:21;;;;;;;1.40;1.20;;;;;;;6.63;100.00;97978.16;4958022;28;20027;-59
2022/01/04 01:41:47;;;;;;;3.70;1.77;;;;;;;6.67;100.00;97966.22;4960036;28;20031;-60
2022/01/04 01:44:12;;;;;;;1.77;1.57;;;;;;;6.69;100.00;97956.88;4953462;28;20026;-59
2022/01/04 01:46:38;;;;;;;1.73;1.30;;;;;;;6.71;100.00;97955.13;4956600;28;20097;-58
2022/01/04 01:49:03;;;;;;;1.60;1.30;;;;;;;6.68;100.00;97955.19;4960425;28;20462;-58
2022/01/04 01:51:30;;;;;;;1.70;1.30;;;;;;;6.64;100.00;97951.84;4955857;28;20027;-59
2022/01/04 01:53:56;;;;;;;2.77;1.80;;;;;;;6.63;100.00;97952.69;4956469;28;20596;-60
2022/01/04 01:56:22;;;;;;;2.27;1.27;;;;;;;6.64;100.00;97940.81;4955762;28;20076;-57
2022/01/04 01:58:47;;;;;;;3.83;1.70;;;;;;;6.62;100.00;97932.38;4956766;28;20555;-60
2022/01/04 02:01:13;;;;;;;2.23;1.30;;;;;;;6.71;100.00;97939.84;4956944;28;20030;-60
2022/01/04 02:03:39;;;;;;;3.57;1.67;;;;;;;6.75;100.00;97941.47;4957328;28;20034;-59
2022/01/04 02:06:05;;;;;;;1.27;1.00;;;;;;;6.63;100.00;97937.41;4954870;28;20051;-59
2022/01/04 02:08:30;;;;;;;1.27;1.17;;;;;;;6.58;100.00;97929.00;4962175;28;20126;-58
2022/01/04 02:10:58;;;;;;;2.00;1.30;;;;;;;6.57;100.00;97932.44;4955784;28;20365;-59
2022/01/04 02:13:24;;;;;;;1.80;1.30;;;;;;;6.48;100.00;97924.06;4954719;28;20103;-60
2022/01/04 02:15:51;;;;;;;2.87;1.80;;;;;;;6.33;100.00;97920.03;4955685;28;20051;-59
2022/01/04 02:18:17;;;;;;;1.60;1.37;;;;;;;6.23;100.00;97914.25;4957603;28;20035;-58
2022/01/04 02:20:43;;;;;;;4.17;1.80;;;;;;;6.18;100.00;97916.00;4953499;28;20645;-60
2022/01/04 02:23:08;;;;;;;2.73;2.00;;;;;;;6.22;100.00;97922.72;4958551;28;20050;-60
2022/01/04 02:25:34;;;;;;;3.70;1.70;;;;;;;6.22;100.00;97921.88;4957321;28;20031;-60
2022/01/04 02:28:00;;;;;;;1.70;1.20;;;;;;;6.20;100.00;97905.78;4961887;28;20043;-60
2022/01/04 02:30:26;;;;;;;5.07;1.80;;;;;;;6.27;100.00;97910.78;4954889;28;20030;-59
2022/01/04 02:32:51;;;;;;;2.53;1.40;;;;;;;6.28;100.00;97891.28;4957552;28;20393;-59
2022/01/04 02:35:19;;;;;;;2.93;1.50;;;;;;;6.32;100.00;97880.19;4954476;28;20141;-60
2022/01/04 02:37:45;;;;;;;1.30;1.20;;;;;;;6.38;100.00;97880.06;4959566;28;20077;-59
2022/01/04 02:40:11;;;;;;;1.77;1.20;;;;;;;6.48;100.00;97871.44;4957031;28;20027;-59
2022/01/04 02:42:36;;;;;;;6.97;2.73;;;;;;;6.53;100.00;97862.03;4954613;28;20442;-56
2022/01/04 02:45:03;;;;;;;4.60;2.20;;;;;;;6.50;100.00;97859.53;4954878;28;20122;-59
2022/01/04 02:47:30;;;;;;;2.40;1.70;;;;;;;6.46;100.00;97852.78;4956690;28;20509;-60
2022/01/04 02:49:56;;;;;;;2.03;1.33;;;;;;;6.49;100.00;97846.84;4953588;28;20054;-59
2022/01/04 02:52:22;;;;;;;3.20;1.23;;;;;;;6.42;100.00;97838.44;4952454;28;20127;-59
2022/01/04 02:54:47;;;;;;;2.10;1.60;;;;;;;6.48;100.00;97843.44;4955721;28;20153;-58
2022/01/04 02:57:13;;;;;;;2.10;1.60;;;;;;;6.49;100.00;97840.03;4956247;28;20049;-58
2022/01/04 02:59:38;;;;;;;1.93;1.70;;;;;;;6.48;100.00;97832.41;4957852;28;20039;-60
2022/01/04 03:02:05;;;;;;;2.43;1.73;;;;;;;6.46;100.00;97829.88;4954442;28;20049;-58
2022/01/04 03:04:30;;;;;;;2.93;1.30;;;;;;;6.41;100.00;97822.31;4960103;28;20037;-59
2022/01/04 03:06:56;;;;;;;3.10;1.93;;;;;;;6.40;100.00;97814.72;4958975;28;20154;-59
2022/01/04 03:09:22;;;;;;;3.07;1.73;;;;;;;6.40;100.00;97810.47;4950603;28;20043;-59
2022/01/04 03:11:47;;;;;;;1.60;1.37;;;;;;;6.39;100.00;97826.59;4953142;28;20672;-59
2022/01/04 03:14:13;;;;;;;1.80;1.53;;;;;;;6.36;100.00;97823.28;4958188;28;20034;-59
2022/01/04 03:16:39;;;;;;;3.40;2.07;;;;;;;6.37;100.00;97830.88;4956081;28;20568;-59
2022/01/04 03:19:10;;;;;;;1.70;1.53;;;;;;;6.48;100.00;97828.16;4953118;28;20027;-58
2022/01/04 03:21:43;;;;;;;2.10;1.50;;;;;;;6.52;100.00;97829.81;4951678;28;20050;-58
2022/01/04 03:24:12;;;;;;;2.70;1.67;;;;;;;6.47;100.00;97831.56;4955184;28;20085;-58
2022/01/04 03:26:39;;;;;;;3.57;1.80;;;;;;;6.47;100.00;97815.44;4955788;28;20197;-58
2022/01/04 03:29:07;;;;;;;8.17;1.87;;;;;;;6.53;100.00;97807.72;4954368;28;20046;-59
2022/01/04 03:31:32;;;;;;;1.97;1.40;;;;;;;6.48;100.00;97806.97;4952314;28;20508;-58
2022/01/04 03:33:58;;;;;;;1.40;1.30;;;;;;;6.49;100.00;97793.38;4959219;28;20062;-59
2022/01/04 03:36:24;;;;;;;1.33;1.20;;;;;;;6.61;100.00;97780.44;4944637;28;20099;-58
2022/01/04 03:38:52;;;;;;;4.27;1.93;;;;;;;6.59;100.00;97780.44;4952735;28;20031;-57
2022/01/04 03:41:19;;;;;;;2.43;1.63;;;;;;;6.65;100.00;97767.63;4953567;28;20031;-58
2022/01/04 03:43:44;;;;;;;1.73;1.63;;;;;;;6.68;100.00;97766.72;4952352;28;20043;-58
2022/01/04 03:46:10;;;;;;;1.80;1.30;;;;;;;6.64;100.00;97758.28;4955989;28;20038;-58
2022/01/04 03:48:36;;;;;;;2.47;1.30;;;;;;;6.77;100.00;97769.09;4958005;28;20027;-57
2022/01/04 03:51:03;;;;;;;2.87;1.43;;;;;;;6.69;100.00;97769.25;4957211;28;20470;-58
2022/01/04 03:53:28;;;;;;;1.60;1.43;;;;;;;6.66;100.00;97748.91;4950789;28;20036;-59
2022/01/04 03:55:54;;;;;;;2.80;1.30;;;;;;;6.66;100.00;97748.09;4959167;28;20037;-59
2022/01/04 03:58:20;;;;;;;3.03;1.40;;;;;;;6.61;100.00;97737.97;4957438;28;20019;-58
2022/01/04 04:00:45;;;;;;;1.83;1.43;;;;;;;6.71;100.00;97728.44;4957370;28;20583;-58
2022/01/04 04:03:11;;;;;;;2.20;1.53;;;;;;;6.67;100.00;97721.72;4953576;28;20039;-60
2022/01/04 04:05:36;;;;;;;2.90;1.50;;;;;;;6.57;100.00;97720.25;4955658;28;20042;-58
2022/01/04 04:08:02;;;;;;;3.60;1.40;;;;;;;6.57;100.00;97722.78;4955134;28;20043;-57
2022/01/04 04:10:27;;;;;;;2.47;1.47;;;;;;;6.53;100.00;97718.63;4954648;28;20031;-58
2022/01/04 04:12:53;;;;;;;5.20;1.83;;;;;;;6.62;100.00;97714.16;4950870;28;20114;-58
2022/01/04 04:15:18;;;;;;;2.80;1.80;;;;;;;6.64;100.00;97731.97;4955681;28;20106;-59
2022/01/04 04:17:47;;;;;;;5.87;1.63;;;;;;;6.55;100.00;97724.50;4956838;28;20047;-60
2022/01/04 04:20:13;;;;;;;2.57;1.37;;;;;;;6.56;100.00;97726.19;4955798;28;20541;-59
2022/01/04 04:22:39;;;;;;;2.97;1.50;;;;;;;6.64;100.00;97729.44;4952960;28;20043;-60
2022/01/04 04:25:05;;;;;;;2.13;1.40;;;;;;;6.58;100.00;97721.88;4956104;28;20537;-58
2022/01/04 04:27:31;;;;;;;5.83;2.47;;;;;;;6.64;100.00;97709.06;4956862;28;20031;-57
2022/01/04 04:29:56;;;;;;;2.67;1.53;;;;;;;6.62;100.00;97705.72;4956059;28;20030;-61
2022/01/04 04:32:22;;;;;;;4.23;1.67;;;;;;;6.56;100.00;97701.56;4958938;28;20038;-59
2022/01/04 04:34:47;;;;;;;3.27;1.67;;;;;;;6.57;100.00;97702.41;4955989;28;20027;-59
2022/01/04 04:37:13;;;;;;;2.87;1.40;;;;;;;6.54;100.00;97698.19;4955638;28;20481;-58
2022/01/04 04:39:38;;;;;;;5.50;1.50;;;;;;;6.53;100.00;97690.59;4953533;28;20042;-59
2022/01/04 04:42:04;;;;;;;3.70;1.03;;;;;;;6.50;100.00;97690.63;4958644;28;20126;-59
2022/01/04 04:44:29;;;;;;;3.13;1.43;;;;;;;6.48;100.00;97694.94;4959867;28;20082;-59
2022/01/04 04:46:55;;;;;;;1.50;1.40;;;;;;;6.45;100.00;97680.53;4958904;28;20035;-59
2022/01/04 04:49:20;;;;;;;1.10;1.00;;;;;;;6.40;100.00;97678.09;4954952;28;20110;-59
2022/01/04 04:51:46;;;;;;;2.57;1.00;;;;;;;6.38;100.00;97674.72;4953844;28;20042;-57
2022/01/04 04:54:12;;;;;;;2.43;1.40;;;;;;;6.40;100.00;97677.25;4958780;28;20050;-57
2022/01/04 04:56:38;;;;;;;2.00;1.27;;;;;;;6.37;100.00;97675.59;4959908;28;20070;-59
2022/01/04 04:59:10;;;;;;;3.63;1.67;;;;;;;6.34;100.00;97674.81;4960129;28;20023;-59
2022/01/04 05:01:36;;;;;;;2.77;1.27;;;;;;;6.30;100.00;97671.47;4955940;28;20031;-59
2022/01/04 05:04:02;;;;;;;3.27;1.53;;;;;;;6.22;100.00;97673.31;4956794;28;20159;-57
2022/01/04 05:06:28;;;;;;;2.60;1.53;;;;;;;6.17;100.00;97661.53;4956224;28;20216;-57
2022/01/04 05:08:53;;;;;;;2.23;1.60;;;;;;;6.07;100.00;97662.56;4957529;28;20126;-59
2022/01/04 05:11:19;;;;;;;3.17;2.13;;;;;;;6.06;100.00;97666.81;4955970;28;20035;-58
2022/01/04 05:13:45;;;;;;;9.83;4.93;;;;;;;5.98;100.00;97677.09;4959599;28;20500;-58
2022/01/04 05:16:10;;;;;;;9.80;4.77;;;;;;;6.00;100.00;97676.22;4957293;28;20191;-60
2022/01/04 05:18:36;;;;;;;9.90;4.47;;;;;;;5.96;100.00;97661.03;4954633;28;20089;-59
2022/01/04 05:21:03;;;;;;;9.97;4.13;;;;;;;5.96;100.00;97658.50;4956279;28;20027;-58
2022/01/04 05:23:29;;;;;;;5.00;3.17;;;;;;;5.89;100.00;97656.91;4957493;28;20035;-59
2022/01/04 05:25:55;;;;;;;3.93;2.50;;;;;;;5.73;100.00;97657.97;4955639;28;20035;-58
2022/01/04 05:28:20;;;;;;;4.93;2.17;;;;;;;5.68;100.00;97654.69;4937623;28;20055;-57
2022/01/04 05:30:46;;;;;;;4.27;2.13;;;;;;;5.64;100.00;97655.59;4957929;28;20509;-57
2022/01/04 05:33:12;;;;;;;3.30;2.23;;;;;;;5.64;100.00;97655.59;4959032;28;20035;-58
2022/01/04 05:35:38;;;;;;;4.03;1.90;;;;;;;5.61;100.00;97657.31;4956594;28;20118;-60
2022/01/04 05:38:04;;;;;;;2.37;1.70;;;;;;;5.62;100.00;97657.31;4954622;28;20444;-60
2022/01/04 05:40:29;;;;;;;3.00;1.93;;;;;;;5.63;100.00;97645.44;4958038;28;20027;-58
2022/01/04 05:42:55;;;;;;;3.97;1.87;;;;;;;5.60;100.00;97630.25;4959680;28;20110;-59
2022/01/04 05:45:20;;;;;;;3.67;2.27;;;;;;;5.52;100.00;97640.50;4954701;28;20429;-60
2022/01/04 05:47:47;;;;;;;5.17;2.27;;;;;;;5.60;100.00;97635.31;4942375;28;20087;-60
2022/01/04 05:50:13;;;;;;;3.37;1.90;;;;;;;5.64;100.00;97629.31;4959166;28;20218;-59
2022/01/04 05:52:38;;;;;;;2.40;1.93;;;;;;;5.60;100.00;97618.34;4958808;28;20042;-60
2022/01/04 05:55:04;;;;;;;1.80;1.63;;;;;;;5.61;100.00;97625.09;4954993;28;20034;-60
2022/01/04 05:57:30;;;;;;;2.00;1.43;;;;;;;5.65;100.00;97642.00;4957761;28;20042;-59
2022/01/04 05:59:57;;;;;;;1.87;1.53;;;;;;;5.67;100.00;97636.91;4958198;28;20105;-57
2022/01/04 06:02:23;;;;;;;5.33;1.80;;;;;;;5.72;100.00;97630.88;4959339;28;20027;-58
2022/01/04 06:04:48;;;;;;;4.97;1.87;;;;;;;5.71;100.00;97623.28;4955229;28;20414;-59
2022/01/04 06:07:13;;;;;;;4.83;2.10;;;;;;;5.80;100.00;97618.88;4953420;28;20058;-60
2022/01/04 06:09:45;;;;;;;2.70;1.97;;;;;;;5.90;100.00;97622.97;4964285;28;20361;-60
2022/01/04 06:14:50;;;;;;;2.70;2.30;;;;;;;5.91;100.00;97609.38;4961992;28;20037;-60
2022/01/04 06:15:17;;;;;;;3.63;3.13;;;;;;;5.90;100.00;97612.78;4949449;28;20062;-59
2022/01/04 06:17:49;;;;;;;3.07;2.27;;;;;;;5.84;100.00;97619.66;4953958;28;20031;-59
2022/01/04 06:20:21;;;;;;;5.47;3.17;;;;;;;5.96;100.00;97614.41;4958706;28;20146;-58
2022/01/04 06:22:47;;;;;;;2.87;2.13;;;;;;;5.95;100.00;97602.53;4955388;28;20054;-60
2022/01/04 06:25:15;;;;;;;3.37;2.67;;;;;;;5.90;100.00;97597.53;4954564;28;20035;-59
2022/01/04 06:27:45;;;;;;;5.33;2.53;;;;;;;5.88;100.00;97593.34;4957726;28;20066;-59
2022/01/04 06:30:14;;;;;;;4.87;2.90;;;;;;;5.84;100.00;97584.91;4957168;28;20026;-58
2022/01/04 06:32:42;;;;;;;2.53;2.30;;;;;;;5.81;100.00;97581.59;4955699;28;20808;-58
2022/01/04 06:35:07;;;;;;;8.57;4.43;;;;;;;5.78;100.00;97586.69;4954621;28;20375;-57
2022/01/04 06:37:33;;;;;;;5.80;4.00;;;;;;;5.80;100.00;97575.66;4955113;28;20135;-57
2022/01/04 06:39:59;;;;;;;7.83;4.67;;;;;;;5.75;100.00;97574.03;4956505;28;20035;-56
2022/01/04 06:42:25;;;;;;;6.47;3.43;;;;;;;5.72;100.00;97576.66;4953121;28;20042;-57
2022/01/04 06:44:50;;;;;;;5.47;3.23;;;;;;;5.72;100.00;97572.41;4954682;28;20039;-59
2022/01/04 06:47:15;;;;;;;7.13;3.70;;;;;;;5.67;100.00;97566.53;4956558;28;20377;-59
2022/01/04 06:49:41;;;;;;;3.43;2.57;;;;;;;5.67;100.00;97564.00;4959049;28;20038;-57
2022/01/04 06:52:08;;;;;;;3.80;2.70;;;;;;;5.63;100.00;97559.84;4946229;28;20571;-59
2022/01/04 06:54:33;;;;;;;2.87;2.50;;;;;;;5.63;100.00;97548.81;4957902;28;20039;-59
2022/01/04 06:56:59;;;;;;;5.00;2.70;;;;;;;5.61;100.00;97536.13;4941342;28;20500;-59
2022/01/04 06:59:25;;;;;;;3.50;2.17;;;;;;;5.64;100.00;97532.72;4958318;28;20039;-58
2022/01/04 07:01:51;;;;;;;4.30;2.37;;;;;;;5.62;100.00;97542.91;4950158;28;20031;-60
2022/01/04 07:04:16;;;;;;;6.97;2.60;;;;;;;5.56;100.00;97537.09;4952734;28;20366;-56
2022/01/04 07:06:42;;;;;;;8.50;2.80;;;;;;;5.58;100.00;97543.81;4951176;28;20563;-54
2022/01/04 07:09:08;;;;;;;4.33;3.03;;;;;;;5.59;100.00;97537.03;4955925;28;20031;-58
2022/01/04 07:11:34;;;;;;;4.03;2.77;;;;;;;5.65;100.00;97547.06;4953357;28;20046;-57
2022/01/04 07:14:01;;;;;;;3.23;2.30;;;;;;;5.65;100.00;97542.00;4936631;28;20445;-58
2022/01/04 07:16:26;;;;;;;2.97;2.50;;;;;;;5.60;100.00;97539.53;4961609;28;20082;-55
2022/01/04 07:18:52;;;;;;;4.13;2.60;;;;;;;5.66;100.00;97548.75;4955833;28;20058;-55
2022/01/04 07:21:19;;;;;;;4.23;2.60;;;;;;;5.65;100.00;97547.06;4956972;28;20058;-58
2022/01/04 07:23:46;;;;;;;5.37;3.27;;;;;;;5.65;100.00;97534.38;4958074;28;20057;-57
2022/01/04 07:26:14;;;;;;;4.47;3.10;;;;;;;5.60;100.00;97534.44;4954109;28;20564;-59
2022/01/04 07:28:40;;;;;;;4.43;4.03;;;;;;;5.67;100.00;97533.50;4958922;28;20027;-59
2022/01/04 07:31:06;;;;;;;6.53;4.73;;;;;;;5.70;100.00;97530.88;4951628;28;20033;-57
2022/01/04 07:33:31;;;;;;;4.60;3.77;;;;;;;5.75;100.00;97526.56;4958111;28;20035;-57
2022/01/04 07:35:57;;;;;;;8.93;4.63;;;;;;;5.82;100.00;97524.75;4956715;28;20035;-57
2022/01/04 07:38:22;;;;;;;10.57;5.43;;;;;;;5.77;100.00;97524.00;4955501;28;20383;-58
2022/01/04 07:40:48;;;;;;;5.37;4.77;;;;;;;5.86;100.00;97531.44;4953056;28;20042;-57
2022/01/04 07:43:14;;;;;;;10.53;5.60;;;;;;;5.90;100.00;97517.84;4943351;28;20442;-59
2022/01/04 07:45:40;;;;;;;8.40;5.27;;;;;;;5.90;100.00;97518.69;4959021;28;20039;-58
2022/01/04 07:48:10;;;;;;;9.90;6.80;;;;;;;5.81;100.00;97507.84;4959162;28;20037;-58
2022/01/04 07:50:40;;;;;;;9.67;8.00;;;;;;;5.94;100.00;97507.59;4951877;28;20034;-58
2022/01/04 07:53:07;;;;;;;10.97;7.53;;;;;;;6.02;100.00;97512.56;4953326;28;20070;-59
2022/01/04 07:55:34;;;;;;;15.80;8.23;;;;;;;6.06;100.00;97493.81;4954764;28;20044;-59
2022/01/04 07:58:00;;;;;;;13.23;8.00;;;;;;;6.16;100.00;97497.84;4955965;28;20031;-60
2022/01/04 08:00:25;;;;;;;10.50;7.90;;;;;;;6.24;100.00;97490.88;4955299;28;20078;-59
2022/01/04 08:02:52;;;;;;;16.70;8.23;;;;;;;6.30;100.00;97493.31;4958874;28;20167;-59
2022/01/04 08:05:18;;;;;;;11.23;8.10;;;;;;;6.39;100.00;97488.03;4955187;28;20035;-59
2022/01/04 08:07:44;;;;;;;11.17;7.93;;;;;;;6.38;100.00;97475.34;4957408;28;20093;-58
2022/01/04 08:10:10;;;;;;;16.10;10.50;;;;;;;6.41;100.00;97463.38;4954542;28;20034;-59
2022/01/04 08:12:36;;;;;;;15.57;9.93;;;;;;;6.43;100.00;97471.84;4957566;28;20046;-59
2022/01/04 08:15:04;;;;;;;23.80;11.93;;;;;;;6.37;100.00;97464.31;4959674;28;20042;-58
2022/01/04 08:17:31;;;;;;;18.97;13.13;;;;;;;6.32;100.00;97462.75;4957935;28;20038;-59
2022/01/04 08:20:01;;;;;;;16.77;12.33;;;;;;;6.40;100.00;97468.53;4958011;28;20055;-59
2022/01/04 08:22:32;;;;;;;18.70;11.50;;;;;;;6.38;100.00;97449.88;4957257;28;20112;-59
2022/01/04 08:25:03;;;;;;;14.40;8.60;;;;;;;6.40;100.00;97443.91;4958312;28;20031;-60
2022/01/04 08:27:29;;;;;;;11.00;8.97;;;;;;;6.46;100.00;97447.16;4955183;28;20032;-60
2022/01/04 08:29:55;;;;;;;9.17;7.17;;;;;;;6.63;100.00;97435.75;4960650;28;20034;-58
2022/01/04 08:32:21;;;;;;;11.13;6.03;;;;;;;6.74;100.00;97430.41;4962055;28;20422;-59
2022/01/04 08:34:48;;;;;;;7.57;4.30;;;;;;;6.75;100.00;97426.97;4963624;28;20037;-58
2022/01/04 08:37:14;;;;;;;4.70;4.13;;;;;;;6.85;100.00;97436.09;4957518;28;20162;-58
2022/01/04 08:39:39;;;;;;;9.37;4.13;;;;;;;6.94;100.00;97446.06;4958766;28;20027;-60
2022/01/04 08:42:05;;;;;;;4.67;3.67;;;;;;;7.01;100.00;97436.56;4958824;28;20035;-59
2022/01/04 08:44:32;;;;;;;5.70;3.83;;;;;;;7.00;100.00;97440.81;4954931;28;20053;-59
2022/01/04 08:46:58;;;;;;;7.43;3.73;;;;;;;7.12;100.00;97424.41;4950885;28;20042;-59
2022/01/04 08:49:24;;;;;;;7.03;4.40;;;;;;;7.11;100.00;97431.22;4954567;28;20034;-58
2022/01/04 08:51:49;;;;;;;7.67;4.63;;;;;;;7.04;100.00;97434.78;4956880;28;20393;-59
2022/01/04 08:54:16;;;;;;;5.37;4.07;;;;;;;7.14;100.00;97423.47;4952144;28;20454;-59
2022/01/04 08:56:41;;;;;;;8.33;5.33;;;;;;;7.27;100.00;97407.00;4949169;28;20038;-59
2022/01/04 08:59:08;;;;;;;8.80;4.80;;;;;;;7.19;100.00;97429.31;4954310;28;20454;-56
2022/01/04 09:01:35;;;;;;;6.87;4.47;;;;;;;7.27;100.00;97429.94;4957393;28;20123;-59
2022/01/04 09:04:01;;;;;;;7.53;3.83;;;;;;;7.38;100.00;97428.84;4953389;28;20495;-58
2022/01/04 09:06:27;;;;;;;7.30;3.70;;;;;;;7.47;100.00;97426.88;4949136;28;20046;-59
2022/01/04 09:08:55;;;;;;;5.53;3.80;;;;;;;7.58;100.00;97421.50;4956148;28;20454;-58
2022/01/04 09:11:21;;;;;;;4.47;3.10;;;;;;;7.67;100.00;97409.34;4954779;28;20030;-58
2022/01/04 09:13:54;;;;;;;8.10;3.53;;;;;;;7.76;100.00;97398.91;4950345;28;20237;-58
2022/01/04 09:19:04;;;;;;;4.47;3.87;;;;;;;8.04;100.00;97395.56;4956482;28;20461;-60
2022/01/04 09:21:30;;;;;;;6.77;3.87;;;;;;;8.11;100.00;97389.38;4956079;28;20046;-59
2022/01/04 09:23:59;;;;;;;8.83;4.40;;;;;;;8.18;100.00;97391.75;4949782;28;20121;-58
2022/01/04 09:26:25;;;;;;;7.07;4.60;;;;;;;8.28;100.00;97376.97;4949444;28;20027;-58
2022/01/04 09:28:51;;;;;;;7.70;5.57;;;;;;;8.35;100.00;97382.78;4945601;28;20039;-58
2022/01/04 09:31:21;;;;;;;10.00;5.83;;;;;;;8.42;100.00;97391.91;4956062;28;20038;-60
2022/01/04 09:33:47;;;;;;;10.10;5.83;;;;;;;8.28;100.00;97382.91;4952216;28;20045;-60
2022/01/04 09:36:13;;;;;;;10.80;6.57;;;;;;;8.35;100.00;97375.94;4952170;28;20039;-59
2022/01/04 09:38:38;;;;;;;10.30;7.60;;;;;;;8.37;100.00;97378.44;4954500;28;20039;-59
2022/01/04 09:41:04;;;;;;;9.87;6.80;;;;;;;8.35;100.00;97375.94;4954021;28;20370;-58
2022/01/04 09:43:30;;;;;;;8.57;6.27;;;;;;;8.39;100.00;97353.69;4948695;28;20120;-59
2022/01/04 09:45:56;;;;;;;12.03;7.27;;;;;;;8.48;100.00;97363.63;4954557;28;20036;-59
2022/01/04 09:48:21;;;;;;;12.97;7.13;;;;;;;8.58;100.00;97352.22;4954894;28;20027;-59
2022/01/04 09:50:48;;;;;;;12.07;7.77;;;;;;;8.69;100.00;97329.75;4936319;28;20085;-60
2022/01/04 09:53:19;;;;;;;10.77;6.30;;;;;;;8.60;100.00;97351.31;4947797;28;20401;-57
2022/01/04 09:55:51;;;;;;;9.77;6.63;;;;;;;8.48;100.00;97317.66;4957259;28;20027;-59
2022/01/04 09:58:19;;;;;;;9.30;6.53;;;;;;;8.56;100.00;97331.88;4954216;28;20034;-60
2022/01/04 10:00:46;;;;;;;52.20;29.10;;;;;;;8.52;100.00;97326.91;4952928;28;20098;-59
2022/01/04 10:03:25;;;;;;;15.77;8.70;;;;;;;8.40;100.00;97323.00;4953457;28;20086;-58
2022/01/04 10:06:15;;;;;;;17.20;8.20;;;;;;;8.48;100.00;97320.22;4939745;28;20126;-58
2022/01/04 10:09:06;;;;;;;10.70;6.80;;;;;;;8.41;100.00;97327.22;4958509;28;20062;-53
2022/01/04 10:11:33;;;;;;;8.57;5.93;;;;;;;8.54;100.00;97325.13;4954118;28;20552;-58
2022/01/04 10:14:26;;;;;;;8.50;5.70;;;;;;;8.63;100.00;97319.72;4957161;28;20089;-57
2022/01/04 10:17:08;;;;;;;9.13;5.30;;;;;;;8.70;100.00;97314.34;4958534;28;20097;-53
2022/01/04 10:19:35;;;;;;;12.67;5.80;;;;;;;8.83;100.00;97303.72;4955019;28;20548;-57
2022/01/04 10:22:13;;;;;;;9.00;5.80;;;;;;;8.89;100.00;97299.25;4954895;28;20764;-58
2022/01/04 10:24:39;;;;;;;6.60;4.77;;;;;;;8.91;100.00;97296.66;4959293;28;20043;-55
2022/01/04 10:27:42;;;;;;;11.88;7.00;;;;;;;8.88;100.00;97277.13;4958441;28;20027;-57
2022/01/04 10:30:14;;;;;;;13.57;8.63;;;;;;;8.78;100.00;97275.78;4953992;28;20035;-56
2022/01/04 10:32:50;;;;;;;13.07;7.37;;;;;;;8.87;100.00;97270.34;4954348;28;20027;-58
2022/01/04 10:35:35;;;;;;;9.87;6.13;;;;;;;8.92;100.00;97262.53;4957589;28;20362;-56
2022/01/04 10:38:17;;;;;;;14.60;7.25;;;;;;;8.91;100.00;97266.00;4954999;28;20412;-54
2022/01/04 10:40:47;;;;;;;13.30;8.00;;;;;;;9.06;100.00;97262.91;4958131;28;20038;-55
2022/01/04 10:43:17;;;;;;;9.63;6.43;;;;;;;9.08;100.00;97253.47;4956927;28;20035;-58
2022/01/04 10:45:44;;;;;;;12.65;6.60;;;;;;;9.13;100.00;97237.06;4957721;28;20039;-60
2022/01/04 10:48:16;;;;;;;11.50;7.03;;;;;;;9.27;100.00;97238.28;4955719;28;20031;-58
2022/01/04 10:50:43;;;;;;;11.53;6.87;;;;;;;9.34;100.00;97225.22;4951250;28;20556;-55
2022/01/04 10:53:39;;;;;;;11.48;7.00;;;;;;;9.50;100.00;97211.00;4957561;28;20039;-55
2022/01/04 10:56:06;;;;;;;;;;;;;;;9.58;100.00;97210.69;4942064;28;20043;-60
2022/01/04 10:58:41;;;;;;;10.07;6.75;;;;;;;9.66;100.00;97205.28;4958363;28;19918;-60
2022/01/04 11:01:11;;;;;;;8.48;5.57;;;;;;;9.72;100.00;97207.63;4952886;28;20068;-59
2022/01/04 11:03:42;;;;;;;8.57;5.03;;;;;;;9.74;100.00;97196.41;4957020;28;20075;-59
2022/01/04 11:06:31;;;;;;;5.50;4.10;;;;;;;9.64;100.00;97207.88;4956042;28;20031;-57
2022/01/04 11:08:57;;;;;;;12.75;6.53;;;;;;;9.66;100.00;97203.56;4952245;28;20129;-60
2022/01/04 11:11:24;;;;;;;10.02;7.60;;;;;;;9.55;100.00;97203.94;4955454;28;20077;-60
2022/01/04 11:13:51;;;;;;;16.65;10.13;;;;;;;9.45;100.00;97202.66;4958981;28;20032;-59
2022/01/04 11:16:19;;;;;;;16.75;13.32;;;;;;;9.49;100.00;97205.91;4955287;28;20150;-59
2022/01/04 11:18:50;;;;;;;23.23;15.18;;;;;;;9.25;100.00;97184.63;4941885;28;20035;-59
2022/01/04 11:21:20;;;;;;;20.13;14.32;;;;;;;9.30;100.00;97181.91;4957769;28;20113;-60
2022/01/04 11:23:46;;;;;;;20.10;14.23;;;;;;;9.39;100.00;97171.34;4962607;28;20019;-58
2022/01/04 11:26:14;;;;;;;21.33;12.80;;;;;;;9.48;100.00;97179.50;4956339;28;20061;-58
2022/01/04 11:28:45;;;;;;;20.38;13.98;;;;;;;9.48;100.00;97174.38;4941375;28;20027;-60
2022/01/04 11:31:41;;;;;;;20.23;15.82;;;;;;;9.51;100.00;97173.44;4959664;28;20098;-58
2022/01/04 11:34:06;;;;;;;17.75;13.55;;;;;;;9.53;100.00;97175.06;4954944;28;20579;-58
2022/01/04 11:36:38;;;;;;;18.50;13.32;;;;;;;9.44;100.00;97189.91;4953767;28;20038;-57
2022/01/04 11:39:33;;;;;;;16.58;14.18;;;;;;;9.40;100.00;97171.28;4954827;28;20139;-60
2022/01/04 11:42:05;;;;;;;20.55;14.57;;;;;;;9.31;100.00;97161.41;4959768;28;20035;-59